Time;durP1;ratioP1;P1;durP2;ratioP2;P2;SDS_P1;SDS_P2;PMS_P1;PMS_P2;Temp;Humidity;BMP_temperature;BMP_pressure;BME280_temperature;BME280_humidity;BME280_pressure;Samples;Min_cycle;Max_cycle;Signal;HPM_P1;HPM_P2
2022/10/24 00:01:42;;;;;;;3.00;1.52;;;14.80;99.90;;;;;;5002547;28;20034;-79
2022/10/24 00:04:08;;;;;;;2.97;1.23;;;14.80;99.90;;;;;;5002250;28;20288;-80
2022/10/24 00:06:33;;;;;;;3.80;1.70;;;14.80;99.90;;;;;;4995440;28;20034;-80
2022/10/24 00:08:59;;;;;;;5.30;1.75;;;14.80;99.90;;;;;;5005008;28;20143;-80
2022/10/24 00:11:26;;;;;;;6.10;1.33;;;14.70;99.90;;;;;;4998444;28;20422;-80
2022/10/24 00:13:54;;;;;;;6.25;1.73;;;14.70;99.90;;;;;;4992702;28;20053;-79
2022/10/24 00:16:20;;;;;;;3.33;1.10;;;14.70;99.90;;;;;;4978925;28;20157;-79
2022/10/24 00:18:46;;;;;;;5.65;1.48;;;14.70;99.90;;;;;;4999853;28;20101;-79
2022/10/24 00:21:12;;;;;;;4.95;1.73;;;14.70;99.90;;;;;;4996950;28;20038;-80
2022/10/24 00:23:38;;;;;;;4.43;1.35;;;14.60;99.90;;;;;;5000936;28;20052;-80
2022/10/24 00:26:05;;;;;;;4.03;1.55;;;14.60;99.90;;;;;;4982312;28;20505;-80
2022/10/24 00:28:33;;;;;;;3.28;1.33;;;14.60;99.90;;;;;;4987304;28;20135;-81
2022/10/24 00:30:59;;;;;;;5.13;1.50;;;14.60;99.90;;;;;;4989815;28;20080;-80
2022/10/24 00:33:25;;;;;;;2.88;1.15;;;14.60;99.90;;;;;;5010907;28;20046;-81
2022/10/24 00:35:51;;;;;;;5.80;1.10;;;14.60;99.90;;;;;;4989811;28;20092;-79
2022/10/24 00:38:16;;;;;;;5.38;1.42;;;14.60;99.90;;;;;;5003469;28;20046;-78
2022/10/24 00:40:42;;;;;;;4.90;1.10;;;14.70;99.90;;;;;;4991461;28;20124;-80
2022/10/24 00:43:23;;;;;;;5.32;1.20;;;14.70;99.90;;;;;;4997849;28;20038;-79
2022/10/24 00:45:56;;;;;;;3.33;1.50;;;14.70;99.90;;;;;;5026866;28;20116;-79
2022/10/24 00:48:39;;;;;;;5.40;1.15;;;14.70;99.90;;;;;;5008511;28;20445;-79
2022/10/24 00:51:06;;;;;;;4.85;1.20;;;14.60;99.90;;;;;;5000614;28;20550;-81
2022/10/24 00:53:36;;;;;;;4.35;1.20;;;14.60;99.90;;;;;;4999081;28;20133;-79
2022/10/24 00:56:06;;;;;;;6.13;1.25;;;14.60;99.90;;;;;;5004930;28;20052;-80
2022/10/24 00:58:34;;;;;;;5.65;1.13;;;14.60;99.90;;;;;;5000590;28;20049;-80
2022/10/24 01:00:59;;;;;;;3.60;0.93;;;14.60;99.90;;;;;;5009825;28;20046;-80
2022/10/24 01:03:26;;;;;;;2.40;1.00;;;14.70;99.90;;;;;;4989068;28;20052;-80
2022/10/24 01:06:27;;;;;;;4.68;1.10;;;14.70;99.90;;;;;;4998495;28;20594;-80
2022/10/24 01:09:11;;;;;;;6.57;1.20;;;14.70;99.90;;;;;;5004956;28;20026;-79
2022/10/24 01:12:00;;;;;;;4.35;0.95;;;15.10;99.90;;;;;;5000821;28;20402;-79
2022/10/24 01:14:41;;;;;;;5.32;1.10;;;14.60;99.90;;;;;;4977082;28;20046;-79
2022/10/24 01:17:12;;;;;;;5.93;0.90;;;14.60;99.90;;;;;;4980032;28;20070;-80
2022/10/24 01:20:28;;;;;;;4.13;1.38;;;14.60;99.90;;;;;;5000141;28;20038;-79
2022/10/24 01:23:19;;;;;;;5.30;1.10;;;14.70;99.90;;;;;;5002331;28;20033;-79
2022/10/24 01:26:12;;;;;;;4.32;1.25;;;14.60;99.90;;;;;;4995468;28;20406;-80
2022/10/24 01:29:16;;;;;;;2.92;1.13;;;14.70;99.90;;;;;;4999930;28;20117;-79
2022/10/24 01:32:02;;;;;;;2.78;0.88;;;14.80;99.90;;;;;;4989363;28;20049;-79
2022/10/24 01:34:35;;;;;;;3.65;1.25;;;14.90;99.90;;;;;;4999957;28;20188;-79
2022/10/24 01:37:05;;;;;;;3.95;1.35;;;14.90;99.90;;;;;;4991195;28;20118;-79
2022/10/24 01:39:34;;;;;;;5.55;1.30;;;14.90;99.90;;;;;;4989223;28;20053;-79
2022/10/24 01:42:02;;;;;;;4.10;1.20;;;15.00;99.90;;;;;;5002585;28;20482;-79
2022/10/24 01:44:34;;;;;;;4.00;1.23;;;15.00;99.90;;;;;;5000222;28;20038;-79
2022/10/24 01:47:18;;;;;;;4.30;1.30;;;15.00;99.90;;;;;;4997201;28;20034;-79
2022/10/24 01:49:53;;;;;;;11.48;1.73;;;15.10;99.90;;;;;;5006787;28;20707;-80
2022/10/24 01:52:23;;;;;;;4.90;1.38;;;15.10;99.90;;;;;;4985131;28;20422;-80
2022/10/24 01:54:50;;;;;;;6.28;1.95;;;15.10;99.90;;;;;;5002514;28;20034;-80
2022/10/24 01:57:16;;;;;;;9.18;1.58;;;15.10;99.90;;;;;;4987555;28;20038;-80
2022/10/24 01:59:47;;;;;;;6.10;1.35;;;15.20;99.90;;;;;;4989598;28;20520;-80
2022/10/24 02:02:20;;;;;;;5.05;1.95;;;15.20;99.90;;;;;;4989194;28;20030;-80
2022/10/24 02:05:00;;;;;;;5.63;1.48;;;15.20;99.90;;;;;;5001403;28;20052;-80
2022/10/24 02:07:29;;;;;;;6.18;1.73;;;15.20;99.90;;;;;;4999068;28;20042;-80
2022/10/24 02:10:04;;;;;;;6.80;1.42;;;15.20;99.90;;;;;;4992135;28;20049;-80
2022/10/24 02:12:31;;;;;;;3.83;1.35;;;15.20;99.90;;;;;;5003407;28;20042;-80
2022/10/24 02:15:05;;;;;;;5.80;1.80;;;15.20;99.90;;;;;;5001473;28;20042;-80
2022/10/24 02:17:31;;;;;;;6.10;1.90;;;15.20;99.90;;;;;;5004031;28;20045;-80
2022/10/24 02:19:58;;;;;;;5.63;1.77;;;15.30;99.90;;;;;;4997058;28;20118;-80
2022/10/24 02:22:40;;;;;;;5.20;1.38;;;15.30;99.90;;;;;;5003454;28;20045;-80
2022/10/24 02:25:11;;;;;;;5.47;1.55;;;15.30;99.90;;;;;;4992198;28;20069;-80
2022/10/24 02:27:48;;;;;;;6.38;1.83;;;15.20;99.90;;;;;;4981017;28;20042;-80
2022/10/24 02:30:23;;;;;;;5.32;1.65;;;15.20;99.90;;;;;;4998981;28;20049;-80
2022/10/24 02:32:57;;;;;;;5.45;1.88;;;15.30;99.90;;;;;;4985021;28;20108;-80
2022/10/24 02:35:27;;;;;;;4.35;1.40;;;15.30;99.90;;;;;;5001825;28;20178;-80
2022/10/24 02:38:00;;;;;;;5.65;1.67;;;15.30;99.90;;;;;;5000520;28;20046;-80
2022/10/24 02:40:26;;;;;;;5.50;1.48;;;15.30;99.90;;;;;;4983357;28;20117;-80
2022/10/24 02:42:54;;;;;;;3.65;1.52;;;15.30;99.90;;;;;;4982755;28;20591;-80
2022/10/24 02:45:20;;;;;;;6.68;1.65;;;15.30;99.90;;;;;;4988719;28;20042;-79
2022/10/24 02:47:47;;;;;;;;;;;15.40;99.90;;;;;;4996021;28;20029;-80
2022/10/24 02:50:13;;;;;;;5.57;1.83;;;15.30;99.90;;;;;;5005295;28;19917;-80
2022/10/24 02:52:40;;;;;;;5.93;1.40;;;15.30;99.90;;;;;;5004896;28;20064;-80
2022/10/24 02:55:06;;;;;;;3.67;1.40;;;15.30;99.90;;;;;;4996032;28;20050;-80
2022/10/24 02:57:32;;;;;;;4.95;1.60;;;15.30;99.90;;;;;;5006721;28;20056;-80
2022/10/24 02:59:57;;;;;;;5.15;1.27;;;15.40;99.90;;;;;;4985343;28;20050;-80
2022/10/24 03:02:23;;;;;;;8.13;1.30;;;15.30;99.90;;;;;;4984861;28;20042;-80
2022/10/24 03:04:49;;;;;;;5.78;1.58;;;15.30;99.90;;;;;;5000496;28;20038;-80
2022/10/24 03:07:15;;;;;;;3.90;1.10;;;15.30;99.90;;;;;;4983812;28;20044;-80
2022/10/24 03:09:40;;;;;;;4.25;1.40;;;15.30;99.90;;;;;;4989355;28;20478;-80
2022/10/24 03:12:06;;;;;;;6.82;1.42;;;15.30;99.90;;;;;;4979948;28;20034;-80
2022/10/24 03:14:32;;;;;;;4.13;1.23;;;15.30;99.90;;;;;;4987623;28;20038;-79
2022/10/24 03:16:58;;;;;;;5.05;1.65;;;15.30;99.90;;;;;;4985891;28;20662;-79
2022/10/24 03:19:24;;;;;;;4.70;1.95;;;15.30;99.90;;;;;;4983525;28;20084;-79
2022/10/24 03:21:50;;;;;;;6.47;1.40;;;15.30;99.90;;;;;;4981576;28;20117;-80
2022/10/24 03:24:16;;;;;;;;;;;15.30;99.90;;;;;;4986402;28;20081;-79
2022/10/24 03:26:41;;;;;;;5.57;1.60;;;15.30;99.90;;;;;;4993470;28;19964;-79
2022/10/24 03:29:07;;;;;;;4.90;1.60;;;15.40;99.90;;;;;;4985861;28;20416;-79
2022/10/24 03:31:33;;;;;;;4.95;1.92;;;15.40;99.90;;;;;;5006107;28;20037;-80
2022/10/24 03:33:59;;;;;;;6.15;1.60;;;15.30;99.90;;;;;;4990657;28;20080;-79
2022/10/24 03:36:24;;;;;;;5.18;1.50;;;15.40;99.90;;;;;;5007363;28;20095;-79
2022/10/24 03:38:50;;;;;;;5.10;1.55;;;15.40;99.90;;;;;;5005143;28;20049;-80
2022/10/24 03:41:16;;;;;;;7.90;1.80;;;15.30;99.90;;;;;;5003215;28;20041;-80
2022/10/24 03:43:41;;;;;;;6.05;1.55;;;15.30;99.90;;;;;;4999559;28;20042;-79
2022/10/24 03:46:07;;;;;;;5.13;1.90;;;15.30;99.90;;;;;;5002990;28;20045;-79
2022/10/24 03:48:33;;;;;;;7.55;1.95;;;15.30;99.90;;;;;;4981159;28;20038;-80
2022/10/24 03:50:58;;;;;;;4.43;1.50;;;15.30;99.90;;;;;;4965153;28;20044;-80
2022/10/24 03:53:24;;;;;;;3.75;1.50;;;15.30;99.90;;;;;;4981046;28;20331;-80
2022/10/24 03:55:50;;;;;;;8.95;2.03;;;15.30;99.90;;;;;;4987451;28;20033;-80
2022/10/24 03:58:16;;;;;;;5.75;1.58;;;15.30;99.90;;;;;;4999683;28;20042;-80
2022/10/24 04:00:42;;;;;;;5.40;1.48;;;15.30;99.90;;;;;;5004077;28;20132;-80
2022/10/24 04:03:08;;;;;;;4.68;1.63;;;15.30;99.90;;;;;;5001973;28;20048;-80
2022/10/24 04:05:34;;;;;;;6.70;1.40;;;15.30;99.90;;;;;;5027761;28;20772;-80
2022/10/24 04:08:00;;;;;;;6.32;1.70;;;15.30;99.90;;;;;;5001717;28;20034;-80
2022/10/24 04:10:26;;;;;;;5.78;1.85;;;15.30;99.90;;;;;;5008729;28;20081;-80
2022/10/24 04:12:52;;;;;;;4.38;1.48;;;15.30;99.90;;;;;;5003998;28;20466;-80
2022/10/24 04:15:18;;;;;;;;;;;15.30;99.90;;;;;;4992467;28;20117;-79
2022/10/24 04:17:44;;;;;;;4.57;1.65;;;15.20;99.90;;;;;;5011240;28;19960;-81
2022/10/24 04:20:10;;;;;;;5.50;1.67;;;15.20;99.90;;;;;;5001668;28;20042;-79
2022/10/24 04:22:36;;;;;;;4.32;1.20;;;15.20;99.90;;;;;;4971274;28;20038;-79
2022/10/24 04:25:03;;;;;;;8.15;1.80;;;15.10;99.90;;;;;;4985900;28;20038;-80
2022/10/24 04:27:29;;;;;;;5.90;1.70;;;15.10;99.90;;;;;;5000441;28;20050;-80
2022/10/24 04:29:54;;;;;;;5.15;1.50;;;15.00;99.90;;;;;;5005782;28;20037;-79
2022/10/24 04:32:20;;;;;;;9.73;1.50;;;15.10;99.90;;;;;;5007671;28;20105;-79
2022/10/24 04:34:46;;;;;;;6.10;1.45;;;15.00;99.90;;;;;;5007947;28;20121;-79
2022/10/24 04:37:12;;;;;;;7.30;1.67;;;14.90;99.90;;;;;;5005510;28;20410;-78
2022/10/24 04:39:38;;;;;;;6.43;1.67;;;14.90;99.90;;;;;;5004754;28;20049;-78
2022/10/24 04:42:03;;;;;;;3.72;1.27;;;14.90;99.90;;;;;;4980833;28;20037;-79
2022/10/24 04:44:29;;;;;;;6.82;1.50;;;14.80;99.90;;;;;;4989769;28;20046;-79
2022/10/24 04:46:55;;;;;;;4.30;1.55;;;14.80;99.90;;;;;;5002505;28;20041;-80
2022/10/24 04:49:20;;;;;;;6.18;1.70;;;14.70;99.90;;;;;;4989632;28;20100;-80
2022/10/24 04:51:46;;;;;;;4.55;1.50;;;14.70;99.90;;;;;;5000339;28;20048;-75
2022/10/24 04:54:12;;;;;;;8.20;1.52;;;14.70;99.90;;;;;;5004287;28;20042;-74
2022/10/24 04:56:37;;;;;;;4.45;1.48;;;14.70;99.90;;;;;;5010061;28;20554;-74
2022/10/24 04:59:04;;;;;;;5.78;1.48;;;14.70;99.90;;;;;;4986144;28;20089;-74
2022/10/24 05:01:30;;;;;;;4.30;1.50;;;14.70;99.90;;;;;;4989603;28;20126;-74
2022/10/24 05:03:55;;;;;;;9.13;1.97;;;14.60;99.90;;;;;;5003134;28;20712;-74
2022/10/24 05:06:21;;;;;;;8.93;1.27;;;14.60;99.90;;;;;;4986650;28;20281;-74
2022/10/24 05:08:47;;;;;;;7.38;1.58;;;14.50;99.90;;;;;;4986396;28;20091;-74
2022/10/24 05:11:12;;;;;;;5.15;1.40;;;14.60;99.90;;;;;;5002618;28;20036;-74
2022/10/24 05:13:38;;;;;;;5.00;1.95;;;14.60;99.90;;;;;;5002843;28;20042;-74
2022/10/24 05:16:05;;;;;;;5.82;1.20;;;14.50;99.90;;;;;;5002938;28;20054;-74
2022/10/24 05:18:31;;;;;;;4.47;1.30;;;14.50;99.90;;;;;;5001394;28;20509;-74
2022/10/24 05:21:00;;;;;;;4.55;1.35;;;14.60;99.90;;;;;;5006600;28;20053;-74
2022/10/24 05:23:26;;;;;;;3.55;1.15;;;14.50;99.90;;;;;;5003859;28;20037;-74
2022/10/24 05:25:52;;;;;;;;;;;14.50;99.90;;;;;;5004349;28;20136;-74
2022/10/24 05:28:18;;;;;;;4.15;1.33;;;14.50;99.90;;;;;;5000627;28;19917;-75
2022/10/24 05:30:43;;;;;;;4.70;1.67;;;14.50;99.90;;;;;;4987867;28;20563;-74
2022/10/24 05:33:10;;;;;;;4.32;1.35;;;14.50;99.90;;;;;;4997487;28;20034;-74
2022/10/24 05:35:35;;;;;;;6.10;1.55;;;14.40;99.90;;;;;;5003565;28;20057;-74
2022/10/24 05:38:01;;;;;;;5.47;1.33;;;14.40;99.90;;;;;;4967815;28;20041;-74
2022/10/24 05:40:27;;;;;;;6.32;1.60;;;14.30;99.90;;;;;;4999716;28;20050;-74
2022/10/24 05:42:52;;;;;;;5.93;1.73;;;14.30;99.90;;;;;;4972745;28;20425;-74
2022/10/24 05:45:18;;;;;;;7.28;1.45;;;14.30;99.90;;;;;;5000177;28;20044;-74
2022/10/24 05:47:44;;;;;;;5.32;1.30;;;14.40;99.90;;;;;;5002097;28;20034;-74
2022/10/24 05:50:10;;;;;;;7.93;1.55;;;14.40;99.90;;;;;;4987266;28;20412;-74
2022/10/24 05:52:36;;;;;;;6.72;1.40;;;14.40;99.90;;;;;;4998756;28;20042;-74
2022/10/24 05:55:04;;;;;;;5.95;1.58;;;14.40;99.90;;;;;;5002159;28;20096;-74
2022/10/24 05:57:30;;;;;;;4.07;1.48;;;14.40;99.90;;;;;;5000636;28;20092;-74
2022/10/24 05:59:56;;;;;;;2.38;1.13;;;14.50;99.90;;;;;;5001119;28;20137;-74
2022/10/24 06:02:21;;;;;;;8.00;1.48;;;14.50;99.90;;;;;;4986328;28;20042;-74
2022/10/24 06:04:49;;;;;;;5.55;1.42;;;14.50;99.90;;;;;;5000812;28;20138;-74
2022/10/24 06:07:16;;;;;;;6.22;1.90;;;14.50;99.90;;;;;;4999058;28;20038;-74
2022/10/24 06:09:41;;;;;;;;;;;14.40;99.90;;;;;;4997154;28;20050;-75
2022/10/24 06:12:11;;;;;;;4.47;1.05;;;14.50;99.90;;;;;;5003644;28;20339;-75
2022/10/24 06:14:38;;;;;;;5.60;1.10;;;14.50;99.90;;;;;;5001352;28;20057;-75
2022/10/24 06:17:07;;;;;;;5.30;1.25;;;14.50;99.90;;;;;;5002337;28;20042;-75
2022/10/24 06:19:35;;;;;;;6.75;1.38;;;14.60;99.90;;;;;;5001443;28;20050;-75
2022/10/24 06:22:01;;;;;;;8.02;1.10;;;14.50;99.90;;;;;;4989753;28;20038;-75
2022/10/24 06:24:26;;;;;;;4.93;1.45;;;14.70;99.90;;;;;;4998771;28;20104;-75
2022/10/24 06:26:52;;;;;;;3.10;1.10;;;14.70;99.90;;;;;;5005236;28;20034;-75
2022/10/24 06:29:18;;;;;;;6.78;1.20;;;14.70;99.90;;;;;;4982780;28;20288;-75
2022/10/24 06:31:43;;;;;;;2.55;1.10;;;14.70;99.90;;;;;;4982667;28;20495;-75
2022/10/24 06:34:09;;;;;;;6.67;1.00;;;14.60;99.90;;;;;;4984105;28;20046;-75
2022/10/24 06:36:35;;;;;;;5.45;1.30;;;14.60;99.90;;;;;;5001328;28;20292;-75
2022/10/24 06:39:02;;;;;;;7.53;1.27;;;14.60;99.90;;;;;;4985296;28;20050;-75
2022/10/24 06:41:27;;;;;;;;;;;14.60;99.90;;;;;;5000247;28;20042;-75
2022/10/24 06:43:55;;;;;;;6.68;1.10;;;14.60;99.90;;;;;;4999074;28;20286;-75
2022/10/24 06:46:22;;;;;;;4.07;0.90;;;14.60;99.90;;;;;;5001419;28;20060;-75
2022/10/24 06:48:52;;;;;;;5.72;1.15;;;14.60;99.90;;;;;;5001191;28;20061;-75
2022/10/24 06:51:17;;;;;;;4.88;1.02;;;14.70;99.90;;;;;;4998658;28;20088;-75
2022/10/24 06:53:43;;;;;;;7.15;0.95;;;14.70;99.90;;;;;;4999039;28;20491;-75
2022/10/24 06:56:09;;;;;;;7.93;0.90;;;14.70;99.90;;;;;;5003719;28;20046;-75
2022/10/24 06:58:36;;;;;;;4.18;1.17;;;14.80;99.90;;;;;;4998621;28;20061;-75
2022/10/24 07:01:11;;;;;;;5.10;0.90;;;14.90;99.90;;;;;;5000103;28;20058;-75
2022/10/24 07:03:37;;;;;;;4.43;0.80;;;15.10;99.90;;;;;;4986831;28;20081;-75
2022/10/24 07:06:27;;;;;;;6.13;1.20;;;15.20;99.90;;;;;;5002621;28;20077;-75
2022/10/24 07:08:55;;;;;;;3.97;1.15;;;15.30;99.90;;;;;;5002608;28;20034;-75
2022/10/24 07:11:22;;;;;;;6.00;0.90;;;15.50;99.90;;;;;;5000641;28;20064;-75
2022/10/24 07:13:48;;;;;;;4.97;1.00;;;15.50;99.90;;;;;;5003185;28;20042;-75
2022/10/24 07:16:14;;;;;;;6.15;1.20;;;15.60;99.90;;;;;;5000880;28;20046;-75
2022/10/24 07:18:41;;;;;;;5.47;1.20;;;15.70;99.90;;;;;;5002296;28;20060;-75
2022/10/24 07:21:09;;;;;;;7.85;1.42;;;15.50;99.90;;;;;;5004240;28;20046;-75
2022/10/24 07:23:35;;;;;;;5.75;1.15;;;15.50;99.90;;;;;;5000735;28;20432;-75
2022/10/24 07:26:09;;;;;;;5.57;1.38;;;15.50;99.90;;;;;;5000941;28;20038;-75
2022/10/24 07:28:36;;;;;;;6.13;1.10;;;15.70;99.90;;;;;;4994936;28;20065;-75
2022/10/24 07:31:03;;;;;;;7.00;1.10;;;15.70;99.90;;;;;;4996126;28;20049;-75
2022/10/24 07:33:29;;;;;;;6.25;1.00;;;15.60;99.90;;;;;;4984346;28;20498;-75
2022/10/24 07:35:54;;;;;;;5.80;0.93;;;15.80;99.90;;;;;;4984328;28;20505;-75
2022/10/24 07:38:20;;;;;;;6.38;0.95;;;16.10;99.90;;;;;;4984027;28;20037;-75
2022/10/24 07:40:46;;;;;;;2.42;0.80;;;16.70;99.90;;;;;;5000000;28;20072;-75
2022/10/24 07:43:12;;;;;;;4.82;1.08;;;17.20;99.90;;;;;;5000546;28;20069;-75
2022/10/24 07:45:39;;;;;;;6.78;0.90;;;17.30;99.90;;;;;;5000747;28;20034;-75
2022/10/24 07:48:05;;;;;;;4.55;1.02;;;17.10;99.90;;;;;;4982034;28;20075;-75
2022/10/24 07:50:32;;;;;;;;;;;16.90;99.90;;;;;;4987422;28;20053;-75
2022/10/24 07:52:57;;;;;;;6.53;0.93;;;16.90;99.90;;;;;;4999737;28;19999;-75
2022/10/24 07:55:23;;;;;;;5.10;0.70;;;16.90;99.90;;;;;;4999104;28;20104;-75
2022/10/24 07:57:49;;;;;;;3.03;0.98;;;16.80;99.90;;;;;;4982496;28;20590;-75
2022/10/24 08:00:15;;;;;;;7.22;1.02;;;16.60;99.90;;;;;;4999851;28;20061;-75
2022/10/24 08:02:41;;;;;;;6.55;1.00;;;16.60;99.90;;;;;;4997863;28;20084;-75
2022/10/24 08:05:08;;;;;;;6.75;1.15;;;16.50;99.90;;;;;;4983175;28;20035;-75
2022/10/24 08:07:35;;;;;;;6.20;1.02;;;16.60;99.90;;;;;;5000144;28;20125;-75
2022/10/24 08:10:01;;;;;;;6.35;1.05;;;16.70;99.90;;;;;;4998190;28;20092;-75
2022/10/24 08:12:27;;;;;;;3.28;0.77;;;16.90;99.90;;;;;;4998361;28;20034;-75
2022/10/24 08:14:54;;;;;;;5.22;1.00;;;17.30;99.90;;;;;;4983755;28;20901;-75
2022/10/24 08:17:22;;;;;;;4.53;1.10;;;17.50;99.90;;;;;;4982431;28;20113;-75
2022/10/24 08:19:48;;;;;;;6.22;0.90;;;17.90;99.90;;;;;;4995784;28;20497;-75
2022/10/24 08:22:14;;;;;;;5.05;1.10;;;18.60;99.90;;;;;;5001885;28;20049;-75
2022/10/24 08:24:42;;;;;;;7.80;1.40;;;18.70;99.90;;;;;;5001990;28;20100;-75
2022/10/24 08:27:07;;;;;;;4.10;1.25;;;18.20;99.90;;;;;;5002195;28;20359;-75
2022/10/24 08:29:33;;;;;;;3.25;0.88;;;18.00;99.90;;;;;;4997978;28;20048;-75
2022/10/24 08:31:59;;;;;;;4.07;1.20;;;18.10;99.90;;;;;;4968838;28;20038;-75
2022/10/24 08:34:25;;;;;;;4.82;1.00;;;18.10;99.90;;;;;;4999137;28;20046;-75
2022/10/24 08:36:51;;;;;;;7.20;0.90;;;18.00;99.90;;;;;;4997731;28;20042;-75
2022/10/24 08:39:17;;;;;;;5.93;0.80;;;17.70;99.90;;;;;;4981866;28;20046;-75
2022/10/24 08:41:54;;;;;;;6.93;0.90;;;17.60;99.90;;;;;;4982118;28;20469;-75
2022/10/24 08:44:36;;;;;;;6.50;1.02;;;17.30;99.90;;;;;;5001310;28;20064;-75
2022/10/24 08:47:12;;;;;;;3.72;1.02;;;17.20;99.90;;;;;;5004150;28;20065;-75
2022/10/24 08:50:04;;;;;;;4.28;1.08;;;17.10;99.90;;;;;;5002078;28;20462;-75
2022/10/24 08:52:43;;;;;;;6.35;0.77;;;17.00;99.90;;;;;;5001610;28;20471;-75
2022/10/24 08:55:20;;;;;;;4.63;0.77;;;17.10;99.90;;;;;;5004309;28;20041;-75
2022/10/24 08:57:53;;;;;;;5.75;0.90;;;17.00;99.90;;;;;;5003514;28;20051;-75
2022/10/24 09:00:38;;;;;;;6.30;0.80;;;16.90;99.90;;;;;;5002738;28;20050;-75
2022/10/24 09:03:37;;;;;;;4.88;1.02;;;16.80;99.90;;;;;;5004489;28;20536;-75
2022/10/24 09:06:11;;;;;;;2.85;0.95;;;16.60;99.90;;;;;;4999535;28;20046;-75
2022/10/24 09:08:50;;;;;;;4.30;0.88;;;16.60;99.90;;;;;;5002966;28;20119;-75
2022/10/24 09:11:51;;;;;;;5.32;1.15;;;16.80;99.90;;;;;;4998340;28;20049;-75
2022/10/24 09:14:25;;;;;;;7.43;1.10;;;16.70;99.90;;;;;;5000103;28;20048;-75
2022/10/24 09:17:01;;;;;;;7.10;1.42;;;16.70;99.90;;;;;;5003976;28;20482;-75
2022/10/24 09:19:29;;;;;;;3.60;0.70;;;16.60;99.90;;;;;;5004833;28;20095;-75
2022/10/24 09:21:56;;;;;;;6.65;1.02;;;16.60;99.90;;;;;;4999835;28;20128;-75
2022/10/24 09:24:28;;;;;;;3.70;1.35;;;16.60;99.90;;;;;;4972349;28;20041;-75
2022/10/24 09:26:54;;;;;;;7.43;1.33;;;16.50;99.90;;;;;;5002949;28;20035;-75
2022/10/24 09:29:23;;;;;;;3.30;0.70;;;16.50;99.90;;;;;;5000352;28;20045;-75
2022/10/24 09:31:49;;;;;;;5.75;0.90;;;16.40;99.90;;;;;;4985993;28;20044;-75
2022/10/24 09:34:16;;;;;;;6.07;1.30;;;16.40;99.90;;;;;;5002008;28;20045;-75
2022/10/24 09:36:43;;;;;;;8.00;1.08;;;16.60;99.90;;;;;;4985876;28;20053;-75
2022/10/24 09:39:30;;;;;;;5.15;0.90;;;17.00;99.90;;;;;;4985577;28;20038;-75
2022/10/24 09:41:58;;;;;;;8.60;1.15;;;17.80;99.90;;;;;;4999197;28;20048;-75
2022/10/24 09:44:31;;;;;;;6.07;0.90;;;18.90;99.90;;;;;;5002561;28;20121;-75
2022/10/24 09:46:57;;;;;;;6.10;1.20;;;19.40;99.90;;;;;;5000041;28;20391;-75
2022/10/24 09:49:30;;;;;;;5.10;1.20;;;19.70;99.90;;;;;;4999716;28;20037;-79
2022/10/24 09:52:01;;;;;;;5.72;1.08;;;19.40;99.90;;;;;;5002334;28;20080;-79
2022/10/24 09:54:29;;;;;;;4.13;0.90;;;19.10;99.90;;;;;;5002478;28;20112;-79
2022/10/24 09:56:57;;;;;;;5.80;1.08;;;18.80;99.90;;;;;;4999683;28;20038;-79
2022/10/24 09:59:43;;;;;;;8.82;1.30;;;18.60;99.90;;;;;;5003930;28;20490;-79
2022/10/24 10:02:24;;;;;;;8.48;1.17;;;18.60;99.90;;;;;;4987891;28;20104;-79
2022/10/24 10:05:15;;;;;;;5.85;0.80;;;18.70;99.90;;;;;;5003454;28;20037;-79
2022/10/24 10:07:47;;;;;;;4.38;1.00;;;18.60;99.90;;;;;;5001688;28;20041;-79
2022/10/24 10:10:33;;;;;;;7.60;0.90;;;18.30;99.90;;;;;;5003995;28;20049;-79
2022/10/24 10:13:14;;;;;;;4.55;0.75;;;18.10;99.90;;;;;;4984479;28;20038;-79
2022/10/24 10:15:47;;;;;;;8.10;1.00;;;18.00;99.90;;;;;;5001859;28;20394;-80
2022/10/24 10:18:31;;;;;;;4.38;0.70;;;18.00;99.90;;;;;;4987829;28;20551;-80
2022/10/24 10:21:24;;;;;;;4.38;0.75;;;17.70;99.90;;;;;;5007736;28;20129;-79
2022/10/24 10:23:54;;;;;;;7.57;1.27;;;17.50;99.90;;;;;;5001188;28;20449;-79
2022/10/24 10:26:42;;;;;;;3.75;0.80;;;17.50;99.90;;;;;;5003977;28;20046;-79
2022/10/24 10:29:28;;;;;;;4.32;1.15;;;17.50;99.90;;;;;;4999408;28;20043;-79
2022/10/24 10:32:11;;;;;;;5.35;0.70;;;17.40;99.90;;;;;;5005045;28;20053;-79
2022/10/24 10:34:46;;;;;;;4.55;0.77;;;17.40;99.90;;;;;;5000378;28;20521;-79
2022/10/24 10:37:28;;;;;;;6.32;1.50;;;17.60;99.90;;;;;;5002807;28;20438;-79
2022/10/24 10:40:36;;;;;;;6.35;1.20;;;17.50;99.90;;;;;;4997565;28;20457;-79
2022/10/24 10:43:23;;;;;;;2.88;0.68;;;17.50;99.90;;;;;;4962225;28;20064;-79
2022/10/24 10:46:12;;;;;;;6.22;1.40;;;17.20;99.90;;;;;;5002003;28;20046;-79
2022/10/24 10:48:56;;;;;;;4.90;1.23;;;16.90;99.90;;;;;;5000751;28;20042;-79
2022/10/24 10:51:49;;;;;;;7.55;0.82;;;16.90;99.90;;;;;;4999395;28;20573;-79
2022/10/24 10:54:36;;;;;;;6.13;1.00;;;16.90;99.90;;;;;;4982674;28;20042;-79
2022/10/24 10:57:15;;;;;;;3.92;0.70;;;17.00;99.90;;;;;;4998001;28;20051;-79
2022/10/24 10:59:57;;;;;;;5.95;0.75;;;17.20;99.90;;;;;;4998038;28;20037;-79
2022/10/24 11:02:50;;;;;;;5.35;0.90;;;17.30;99.90;;;;;;5005436;28;20060;-79
2022/10/24 11:05:53;;;;;;;4.57;0.88;;;17.80;99.90;;;;;;5000482;28;20041;-80
2022/10/24 11:08:30;;;;;;;4.35;0.70;;;18.20;99.90;;;;;;5000533;28;20034;-80
2022/10/24 11:11:03;;;;;;;3.25;0.80;;;19.00;99.90;;;;;;5003292;28;20045;-79
2022/10/24 11:13:35;;;;;;;6.35;0.90;;;19.40;99.90;;;;;;5000944;28;20049;-79
2022/10/24 11:16:07;;;;;;;6.13;1.02;;;19.70;99.90;;;;;;5002074;28;20037;-79
2022/10/24 11:18:40;;;;;;;7.00;0.80;;;19.80;99.90;;;;;;4998145;28;20552;-79
2022/10/24 11:21:08;;;;;;;7.03;0.95;;;19.90;99.90;;;;;;4983983;28;20117;-79
2022/10/24 11:23:54;;;;;;;4.80;0.85;;;19.40;99.90;;;;;;5001482;28;20130;-79
2022/10/24 11:26:30;;;;;;;7.78;1.10;;;19.10;99.90;;;;;;5005277;28;20049;-79
2022/10/24 11:29:08;;;;;;;9.57;0.90;;;18.80;99.90;;;;;;4999868;28;20073;-79
2022/10/24 11:31:39;;;;;;;4.82;0.70;;;18.60;99.90;;;;;;4999514;28;20046;-79
2022/10/24 11:34:25;;;;;;;5.93;1.30;;;18.70;99.90;;;;;;4982281;28;20038;-79
2022/10/24 11:36:57;;;;;;;6.82;0.98;;;18.50;99.90;;;;;;4997471;28;20495;-79
2022/10/24 11:39:50;;;;;;;13.05;1.27;;;18.30;99.90;;;;;;5002317;28;20044;-79
2022/10/24 11:42:51;;;;;;;6.72;1.30;;;18.20;99.90;;;;;;4982113;28;20038;-79
2022/10/24 11:45:23;;;;;;;9.25;1.38;;;17.80;99.90;;;;;;4996272;28;20204;-80
2022/10/24 11:48:13;;;;;;;4.57;0.60;;;17.90;99.90;;;;;;4999691;28;20069;-80
2022/10/24 11:50:53;;;;;;;4.15;0.95;;;18.30;99.90;;;;;;4999333;28;20054;-80
2022/10/24 11:53:27;;;;;;;5.85;0.60;;;18.30;99.90;;;;;;5002571;28;20057;-79
2022/10/24 11:55:58;;;;;;;6.03;0.80;;;18.20;99.90;;;;;;5001348;28;20125;-79
2022/10/24 11:58:27;;;;;;;5.22;1.08;;;18.00;99.90;;;;;;5000519;28;20084;-79
2022/10/24 12:01:06;;;;;;;4.53;0.80;;;17.70;99.90;;;;;;4985118;28;20046;-79
2022/10/24 12:03:39;;;;;;;4.18;0.50;;;17.60;99.90;;;;;;5001237;28;20042;-80
2022/10/24 12:06:32;;;;;;;6.10;1.00;;;17.50;99.90;;;;;;4999840;28;20513;-80
2022/10/24 12:09:10;;;;;;;10.55;0.63;;;17.60;99.90;;;;;;4986388;28;20085;-79
2022/10/24 12:12:08;;;;;;;6.32;0.70;;;17.60;99.90;;;;;;4997935;28;20057;-79
2022/10/24 12:14:51;;;;;;;3.88;0.90;;;17.50;99.90;;;;;;5002833;28;20046;-79
2022/10/24 12:17:35;;;;;;;3.90;1.05;;;17.40;99.90;;;;;;5001458;28;20033;-79
2022/10/24 12:20:03;;;;;;;4.63;0.90;;;17.70;99.90;;;;;;5004846;28;20486;-79
2022/10/24 12:22:41;;;;;;;5.57;1.05;;;17.80;99.90;;;;;;4994127;28;20057;-79
2022/10/24 12:25:26;;;;;;;5.75;0.60;;;17.90;99.90;;;;;;5005673;28;20072;-79
2022/10/24 12:27:55;;;;;;;5.68;0.95;;;17.80;99.90;;;;;;5003356;28;20146;-80
2022/10/24 12:30:23;;;;;;;6.90;0.65;;;17.60;99.90;;;;;;5003244;28;20041;-79
2022/10/24 12:32:56;;;;;;;3.65;0.80;;;17.50;99.90;;;;;;4988984;28;20045;-80
2022/10/24 12:35:34;;;;;;;5.22;0.90;;;17.70;99.90;;;;;;5003613;28;20136;-79
2022/10/24 12:38:14;;;;;;;4.80;0.80;;;17.80;99.90;;;;;;5008514;28;20104;-79
2022/10/24 12:40:51;;;;;;;6.47;0.95;;;17.80;99.90;;;;;;4989930;28;20057;-80
2022/10/24 12:43:44;;;;;;;7.05;0.95;;;18.10;99.90;;;;;;5003432;28;20042;-80
2022/10/24 12:46:16;;;;;;;5.65;0.90;;;18.00;99.90;;;;;;5001787;28;20073;-80
2022/10/24 12:49:16;;;;;;;4.20;1.00;;;18.00;99.90;;;;;;5001672;28;20122;-79
2022/10/24 12:51:42;;;;;;;4.93;0.80;;;17.80;99.90;;;;;;4990622;28;20081;-79
2022/10/24 12:54:10;;;;;;;3.03;0.75;;;17.80;99.90;;;;;;4989049;28;20493;-79
2022/10/24 12:57:02;;;;;;;3.40;0.80;;;17.60;99.90;;;;;;5002116;28;20088;-80
2022/10/24 12:59:30;;;;;;;5.18;0.60;;;17.60;99.90;;;;;;4993297;28;20438;-79
2022/10/24 13:02:09;;;;;;;4.97;0.70;;;17.60;99.90;;;;;;5001116;28;20050;-79
2022/10/24 13:04:50;;;;;;;4.97;0.77;;;17.70;99.90;;;;;;5004883;28;20041;-80
2022/10/24 13:07:38;;;;;;;3.15;0.70;;;17.70;99.90;;;;;;4984388;28;20044;-80
2022/10/24 13:10:16;;;;;;;4.40;0.68;;;17.80;99.90;;;;;;5000799;28;20088;-79
2022/10/24 13:12:47;;;;;;;8.35;0.98;;;17.90;99.90;;;;;;5000619;28;20037;-79